Station Historical Data
Daily Summary for July 29, 2017 Units:  Metric    English   Both
« Previous Day
Next Day »
Daily Weekly Monthly Yearly Custom
  High: Low: Average:
Temperature: 26.2 °C 13.3 °C 20.4 °C
Dew Point: 16.2 °C 10.6 °C 13.7 °C
Humidity: 89% 49% 67%
Wind Speed: 24.1km/h 0km/h 3.5km/h
Wind Gust: 38.6km/h - -
Wind- - ESE
Pressure: 1016.1 hPa 1013.1 hPa -
Precipitation: 0 mm    
Historical Graphs
 
 
Tabular Data for July 29, 2017
Time Temperature Dew Point Pressure Wind Wind Speed Wind Gust Humidity Rainfall Rate (Hourly)
00:04 15.2 °C 10.9 °C 1014.1 hPa Calm     76% 0 mm
00:09 15 °C 10.8 °C 1014.1 hPa Calm     76% 0 mm
00:14 14.9 °C 10.7 °C 1014.1 hPa Calm     76% 0 mm
00:19 14.8 °C 10.8 °C 1014.1 hPa Calm     77% 0 mm
00:24 14.6 °C 10.6 °C 1014.4 hPa Calm     77% 0 mm
00:29 14.6 °C 10.6 °C 1014.4 hPa Calm     77% 0 mm
00:34 14.4 °C 10.7 °C 1014.1 hPa Calm     78% 0 mm
00:39 14.4 °C 10.8 °C 1014.1 hPa Calm     79% 0 mm
00:44 14.3 °C 10.7 °C 1014.1 hPa Calm     79% 0 mm
00:49 14.3 °C 10.7 °C 1014.4 hPa Calm     79% 0 mm
00:54 14.1 °C 10.7 °C 1014.1 hPa Calm     80% 0 mm
00:59 14.1 °C 10.8 °C 1014.1 hPa Calm     81% 0 mm
01:04 14.2 °C 10.9 °C 1014.1 hPa Calm     81% 0 mm
01:09 14.1 °C 10.8 °C 1014.1 hPa Calm     81% 0 mm
01:14 14.1 °C 10.8 °C 1014.1 hPa Calm     81% 0 mm
01:19 14.2 °C 10.9 °C 1013.8 hPa Calm     81% 0 mm
01:24 14.4 °C 11.1 °C 1013.8 hPa Calm     80% 0 mm
01:29 14.7 °C 11.1 °C 1013.8 hPa Calm     79% 0 mm
01:34 14.7 °C 11.1 °C 1013.8 hPa Calm     79% 0 mm
01:39 14.7 °C 11.1 °C 1014.1 hPa Calm     79% 0 mm
01:44 14.6 °C 11 °C 1013.8 hPa Calm     79% 0 mm
01:49 14.5 °C 10.9 °C 1014.1 hPa Calm     79% 0 mm
01:54 14.4 °C 11 °C 1013.8 hPa Calm     80% 0 mm
01:59 14.4 °C 11 °C 1013.8 hPa Calm     80% 0 mm
02:04 14.4 °C 11.2 °C 1013.8 hPa Calm     81% 0 mm
02:09 14.3 °C 11.1 °C 1013.8 hPa Calm     81% 0 mm
02:14 14.3 °C 11.1 °C 1013.8 hPa Calm     81% 0 mm
02:19 14.2 °C 11 °C 1013.8 hPa Calm     81% 0 mm
02:24 14.2 °C 11.1 °C 1013.8 hPa Calm     82% 0 mm
02:29 14.2 °C 11.1 °C 1013.8 hPa Calm     82% 0 mm
02:34 14.2 °C 11.2 °C 1013.4 hPa Calm     82% 0 mm
02:39 14.3 °C 11.3 °C 1013.1 hPa Calm     82% 0 mm
02:44 14.4 °C 11.2 °C 1013.1 hPa Calm     81% 0 mm
02:49 14.6 °C 11.3 °C 1013.1 hPa Calm     81% 0 mm
02:54 14.6 °C 11.4 °C 1013.1 hPa Calm     81% 0 mm
02:59 14.6 °C 11.4 °C 1013.1 hPa Calm     81% 0 mm
03:04 14.6 °C 11.4 °C 1013.4 hPa Calm     81% 0 mm
03:09 14.6 °C 11.3 °C 1013.4 hPa Calm     81% 0 mm
03:14 14.4 °C 11.2 °C 1013.4 hPa Calm     81% 0 mm
03:19 14.3 °C 11.1 °C 1013.4 hPa Calm     81% 0 mm
03:24 14.2 °C 11.1 °C 1013.4 hPa Calm     82% 0 mm
03:29 14.1 °C 11.1 °C 1013.4 hPa Calm     82% 0 mm
03:34 14.1 °C 11.2 °C 1013.4 hPa Calm     83% 0 mm
03:39 14.2 °C 11.2 °C 1013.4 hPa Calm     82% 0 mm
03:44 14.2 °C 11.2 °C 1013.4 hPa Calm     82% 0 mm
03:49 14.1 °C 11.2 °C 1013.4 hPa Calm     83% 0 mm
03:54 13.9 °C 11.1 °C 1013.4 hPa Calm     83% 0 mm
03:59 13.8 °C 11.1 °C 1013.4 hPa Calm     84% 0 mm
04:04 13.7 °C 11 °C 1013.4 hPa Calm     84% 0 mm
04:09 13.7 °C 11 °C 1013.4 hPa Calm     84% 0 mm
04:14 13.7 °C 11.2 °C 1013.4 hPa Calm     85% 0 mm
04:19 13.6 °C 11.1 °C 1013.4 hPa Calm     85% 0 mm
04:24 13.4 °C 10.9 °C 1013.4 hPa Calm     85% 0 mm
04:29 13.3 °C 10.9 °C 1013.4 hPa Calm     85% 0 mm
04:34 13.3 °C 11.1 °C 1013.4 hPa Calm     86% 0 mm
04:39 13.3 °C 11.1 °C 1013.4 hPa Calm     86% 0 mm
04:44 13.3 °C 11 °C 1013.4 hPa Calm     86% 0 mm
04:49 13.3 °C 11.1 °C 1013.4 hPa Calm     86% 0 mm
04:54 13.6 °C 11.3 °C 1013.4 hPa Calm     86% 0 mm
04:59 13.7 °C 11.4 °C 1013.4 hPa Calm     86% 0 mm
05:04 13.7 °C 11.4 °C 1013.4 hPa Calm     86% 0 mm
05:09 13.7 °C 11.2 °C 1013.4 hPa Calm     85% 0 mm
05:19 13.6 °C 11.3 °C 1013.4 hPa Calm     86% 0 mm
05:24 13.6 °C 11.3 °C 1013.4 hPa Calm     86% 0 mm
05:29 13.6 °C 11.3 °C 1013.8 hPa Calm     86% 0 mm
05:34 13.5 °C 11.4 °C 1013.8 hPa Calm     87% 0 mm
05:39 13.4 °C 11.3 °C 1013.8 hPa Calm     87% 0 mm
05:44 13.3 °C 11.2 °C 1013.8 hPa Calm     87% 0 mm
05:49 13.3 °C 11.2 °C 1013.8 hPa Calm     87% 0 mm
05:54 13.3 °C 11.3 °C 1013.8 hPa Calm     88% 0 mm
05:59 13.3 °C 11.4 °C 1013.8 hPa Calm     88% 0 mm
06:04 13.4 °C 11.5 °C 1014.1 hPa Calm     88% 0 mm
06:09 13.6 °C 11.8 °C 1014.1 hPa Calm     89% 0 mm
06:14 13.8 °C 12.1 °C 1014.1 hPa Calm     89% 0 mm
06:19 14.1 °C 12.3 °C 1014.1 hPa Calm     89% 0 mm
06:24 14.2 °C 12.4 °C 1014.1 hPa Calm   3.2 km/h 89% 0 mm
06:29 14.3 °C 12.6 °C 1014.1 hPa Calm   3.2 km/h 89% 0 mm
06:34 14.4 °C 12.7 °C 1014.1 hPa Calm   1.6 km/h 89% 0 mm
06:39 14.7 °C 12.9 °C 1014.4 hPa Calm   3.2 km/h 89% 0 mm
06:44 14.8 °C 13.1 °C 1014.4 hPa Calm   3.2 km/h 89% 0 mm
06:49 14.9 °C 13.2 °C 1014.4 hPa Calm     89% 0 mm
06:54 15.1 °C 13.3 °C 1014.4 hPa Calm     89% 0 mm
06:59 15.2 °C 13.4 °C 1014.8 hPa Calm     89% 0 mm
07:04 15.3 °C 13.6 °C 1014.8 hPa Calm     89% 0 mm
07:09 15.4 °C 13.7 °C 1014.8 hPa Calm     89% 0 mm
07:14 15.6 °C 13.8 °C 1014.8 hPa Calm     89% 0 mm
07:19 15.8 °C 13.8 °C 1014.8 hPa Calm     88% 0 mm
07:24 15.9 °C 13.9 °C 1014.8 hPa Calm     88% 0 mm
07:29 16.1 °C 14.1 °C 1014.8 hPa Calm   6.4 km/h 88% 0 mm
07:34 16.2 °C 14.2 °C 1015.1 hPa NNW 1.6 km/h 6.4 km/h 88% 0 mm
07:39 16.3 °C 14.3 °C 1015.1 hPa NNE 3.2 km/h 4.8 km/h 88% 0 mm
07:44 16.4 °C 14.3 °C 1015.1 hPa NNE 3.2 km/h 4.8 km/h 87% 0 mm
07:49 16.7 °C 14.6 °C 1015.1 hPa NNE 1.6 km/h 4.8 km/h 87% 0 mm
07:54 17.2 °C 15 °C 1015.1 hPa NNE 1.6 km/h 4.8 km/h 87% 0 mm
07:59 17.4 °C 15.1 °C 1015.1 hPa NNE 3.2 km/h 6.4 km/h 86% 0 mm
08:09 17.7 °C 15.2 °C 1015.5 hPa NNE 3.2 km/h 9.7 km/h 85% 0 mm
08:14 17.7 °C 15 °C 1015.5 hPa NE 1.6 km/h 9.7 km/h 84% 0 mm
08:24 17.8 °C 15.2 °C 1015.5 hPa North 1.6 km/h 9.7 km/h 85% 0 mm
08:29 18.1 °C 15.3 °C 1015.5 hPa North 1.6 km/h 6.4 km/h 84% 0 mm
08:34 18.4 °C 15.4 °C 1015.5 hPa NNE 3.2 km/h 8 km/h 83% 0 mm
08:39 19 °C 16.1 °C 1015.5 hPa NNE 3.2 km/h 8 km/h 83% 0 mm
08:44 19.4 °C 15.8 °C 1015.5 hPa NNE 3.2 km/h 9.7 km/h 80% 0 mm
08:49 19.6 °C 16.1 °C 1015.5 hPa NNE 3.2 km/h 16.1 km/h 80% 0 mm
08:54 19.9 °C 16.2 °C 1015.5 hPa NE 4.8 km/h 14.5 km/h 79% 0 mm
09:04 20.2 °C 15.6 °C 1015.5 hPa North 6.4 km/h 12.9 km/h 75% 0 mm
09:09 20.6 °C 15.8 °C 1015.5 hPa Calm   6.4 km/h 74% 0 mm
09:14 20.7 °C 15.1 °C 1015.8 hPa NE 6.4 km/h 16.1 km/h 70% 0 mm
09:19 21 °C 15.8 °C 1015.8 hPa NE 4.8 km/h 16.1 km/h 72% 0 mm
09:24 21.3 °C 15.8 °C 1015.8 hPa NE 6.4 km/h 14.5 km/h 71% 0 mm
09:29 21.7 °C 15.7 °C 1015.8 hPa NE 4.8 km/h 14.5 km/h 69% 0 mm
09:34 21.9 °C 15.5 °C 1015.8 hPa NNE 8 km/h 16.1 km/h 67% 0 mm
09:39 22.1 °C 14.9 °C 1015.8 hPa NNE 6.4 km/h 16.1 km/h 64% 0 mm
09:44 22.2 °C 15.1 °C 1015.8 hPa NNE 6.4 km/h 12.9 km/h 64% 0 mm
09:49 22.1 °C 14 °C 1015.8 hPa NNE 6.4 km/h 24.1 km/h 60% 0 mm
09:54 22.4 °C 14.2 °C 1015.8 hPa NE 6.4 km/h 25.7 km/h 60% 0 mm
09:59 22.6 °C 14.1 °C 1015.8 hPa NE 9.7 km/h 25.7 km/h 59% 0 mm
10:04 22.6 °C 13.7 °C 1015.8 hPa ESE 17.7 km/h 20.9 km/h 57% 0 mm
10:09 22.6 °C 13.7 °C 1015.8 hPa NE 6.4 km/h 24.1 km/h 57% 0 mm
10:14 22.8 °C 14.1 °C 1015.8 hPa NNW 8 km/h 17.7 km/h 58% 0 mm
10:19 23.1 °C 14.9 °C 1015.8 hPa NE 8 km/h 17.7 km/h 60% 0 mm
10:24 23.2 °C 14.2 °C 1015.8 hPa NE 8 km/h 22.5 km/h 57% 0 mm
10:29 23.1 °C 14.6 °C 1016.1 hPa NE 9.7 km/h 22.5 km/h 59% 0 mm
10:34 23.1 °C 14.7 °C 1015.8 hPa North 4.8 km/h 20.9 km/h 59% 0 mm
10:39 23.1 °C 14.3 °C 1016.1 hPa NE 20.9 km/h 27.4 km/h 58% 0 mm
10:44 23.2 °C 13.9 °C 1016.1 hPa NE 14.5 km/h 20.9 km/h 56% 0 mm
10:49 23.3 °C 13.8 °C 1016.1 hPa NE 12.9 km/h 38.6 km/h 55% 0 mm
10:54 23.3 °C 13.5 °C 1016.1 hPa NE 14.5 km/h 38.6 km/h 54% 0 mm
10:59 23.4 °C 13 °C 1016.1 hPa ENE 14.5 km/h 32.2 km/h 52% 0 mm
11:04 23.3 °C 13.4 °C 1016.1 hPa NE 4.8 km/h 27.4 km/h 54% 0 mm
11:09 23.3 °C 13.2 °C 1016.1 hPa NE 8 km/h 20.9 km/h 53% 0 mm
11:14 23.1 °C 13.3 °C 1016.1 hPa NE 9.7 km/h 27.4 km/h 54% 0 mm
11:19 22.8 °C 13.6 °C 1016.1 hPa NE 6.4 km/h 14.5 km/h 56% 0 mm
11:24 23.1 °C 13.2 °C 1016.1 hPa NNE 4.8 km/h 17.7 km/h 54% 0 mm
11:29 23.4 °C 13 °C 1016.1 hPa ENE 16.1 km/h 24.1 km/h 52% 0 mm
11:34 23.7 °C 13.3 °C 1016.1 hPa NE 11.3 km/h 24.1 km/h 52% 0 mm
11:39 24.2 °C 14.6 °C 1016.1 hPa NE 9.7 km/h 22.5 km/h 55% 0 mm
11:44 24.2 °C 13.1 °C 1016.1 hPa NE 8 km/h 19.3 km/h 50% 0 mm
11:49 24.3 °C 14.4 °C 1015.8 hPa NNE 6.4 km/h 19.3 km/h 54% 0 mm
11:54 24 °C 12.9 °C 1015.8 hPa ENE 17.7 km/h 20.9 km/h 50% 0 mm
11:59 23.8 °C 13.6 °C 1016.1 hPa NE 4.8 km/h 20.9 km/h 53% 0 mm
12:04 23.7 °C 13.3 °C 1016.1 hPa NE 9.7 km/h 29 km/h 52% 0 mm
12:09 23.7 °C 12.6 °C 1015.8 hPa NE 3.2 km/h 27.4 km/h 50% 0 mm
12:14 23.7 °C 13.6 °C 1015.8 hPa NE 6.4 km/h 25.7 km/h 53% 0 mm
12:19 24.5 °C 14 °C 1015.8 hPa NE 11.3 km/h 16.1 km/h 52% 0 mm
12:24 24.5 °C 14.3 °C 1015.8 hPa North 4.8 km/h 24.1 km/h 53% 0 mm
12:29 24.8 °C 13.7 °C 1015.8 hPa NE 6.4 km/h 22.5 km/h 50% 0 mm
12:34 25.2 °C 14 °C 1015.8 hPa NE 6.4 km/h 22.5 km/h 50% 0 mm
12:39 25 °C 14.2 °C 1015.8 hPa NE 8 km/h 24.1 km/h 51% 0 mm
12:44 24.2 °C 14.9 °C 1015.8 hPa NE 8 km/h 24.1 km/h 56% 0 mm
12:49 24.8 °C 14.6 °C 1015.8 hPa NNE 6.4 km/h 16.1 km/h 53% 0 mm
12:54 24.4 °C 13.9 °C 1015.8 hPa NNE 6.4 km/h 17.7 km/h 52% 0 mm
12:59 24.9 °C 15 °C 1015.8 hPa NW 6.4 km/h 12.9 km/h 54% 0 mm
13:04 25.1 °C 13.9 °C 1015.8 hPa NNE 6.4 km/h 25.7 km/h 50% 0 mm
13:09 24.6 °C 13.4 °C 1015.5 hPa NE 8 km/h 25.7 km/h 50% 0 mm
13:14 24.8 °C 14.9 °C 1015.5 hPa NE 9.7 km/h 25.7 km/h 54% 0 mm
13:19 24.8 °C 13.4 °C 1015.5 hPa NE 12.9 km/h 27.4 km/h 49% 0 mm
13:24 24.8 °C 13.9 °C 1015.5 hPa NNE 9.7 km/h 22.5 km/h 51% 0 mm
13:29 24.8 °C 14.6 °C 1015.5 hPa North 4.8 km/h 22.5 km/h 53% 0 mm
13:34 25.2 °C 14.1 °C 1015.5 hPa NE 8 km/h 22.5 km/h 50% 0 mm
13:39 24.8 °C 13.7 °C 1015.5 hPa East 8 km/h 19.3 km/h 50% 0 mm
13:44 25.2 °C 14.9 °C 1015.5 hPa NNW 4.8 km/h 20.9 km/h 53% 0 mm
13:49 24.7 °C 13.6 °C 1015.8 hPa NNE 3.2 km/h 14.5 km/h 50% 0 mm
13:54 24.9 °C 14.1 °C 1015.8 hPa NNE 8 km/h 19.3 km/h 51% 0 mm
13:59 24.5 °C 13.7 °C 1015.8 hPa NE 6.4 km/h 22.5 km/h 51% 0 mm
14:04 24.6 °C 13.7 °C 1015.8 hPa ENE 6.4 km/h 24.1 km/h 51% 0 mm
14:09 24.7 °C 13.8 °C 1015.8 hPa ENE 12.9 km/h 24.1 km/h 51% 0 mm
14:14 24.8 °C 13.9 °C 1015.8 hPa ENE 17.7 km/h 22.5 km/h 51% 0 mm
14:19 25.1 °C 14.2 °C 1015.8 hPa NNE 4.8 km/h 20.9 km/h 51% 0 mm
14:24 24.7 °C 14.4 °C 1015.8 hPa NE 6.4 km/h 20.9 km/h 53% 0 mm
14:29 25.1 °C 15.2 °C 1015.8 hPa NNE 4.8 km/h 17.7 km/h 54% 0 mm
14:34 24.7 °C 13.6 °C 1015.8 hPa NE 6.4 km/h 17.7 km/h 50% 0 mm
14:39 24.5 °C 13.7 °C 1015.8 hPa NE 8 km/h 17.7 km/h 51% 0 mm
14:44 24.7 °C 15 °C 1015.8 hPa NNW 3.2 km/h 19.3 km/h 55% 0 mm
14:49 25.2 °C 14.3 °C 1015.8 hPa North 6.4 km/h 14.5 km/h 51% 0 mm
14:54 25.1 °C 13.9 °C 1015.8 hPa NNE 6.4 km/h 17.7 km/h 50% 0 mm
14:59 25.1 °C 14.8 °C 1015.8 hPa NW 9.7 km/h 16.1 km/h 53% 0 mm
15:04 25.4 °C 15.4 °C 1015.5 hPa NNW 8 km/h 22.5 km/h 54% 0 mm
15:09 25.5 °C 14.9 °C 1015.5 hPa North 9.7 km/h 16.1 km/h 52% 0 mm
15:14 25.4 °C 15.2 °C 1015.5 hPa NE 19.3 km/h 19.3 km/h 53% 0 mm
15:19 25.4 °C 15.1 °C 1015.5 hPa ENE 12.9 km/h 27.4 km/h 53% 0 mm
15:24 25.6 °C 15 °C 1015.5 hPa NE 8 km/h 27.4 km/h 52% 0 mm
15:29 25.7 °C 15.1 °C 1015.5 hPa NE 6.4 km/h 12.9 km/h 52% 0 mm
15:34 25.2 °C 13.7 °C 1015.5 hPa ENE 8 km/h 20.9 km/h 49% 0 mm
15:39 25.1 °C 14.2 °C 1015.5 hPa East 24.1 km/h 24.1 km/h 51% 0 mm
15:44 25.1 °C 14.3 °C 1015.1 hPa NE 9.7 km/h 20.9 km/h 51% 0 mm
15:49 25.6 °C 15 °C 1015.5 hPa NNW 6.4 km/h 19.3 km/h 52% 0 mm
15:54 25.7 °C 14.4 °C 1015.5 hPa NE 8 km/h 20.9 km/h 50% 0 mm
15:59 25.4 °C 14.5 °C 1015.1 hPa NE 8 km/h 20.9 km/h 51% 0 mm
16:04 25.7 °C 14.8 °C 1015.1 hPa NNW 6.4 km/h 16.1 km/h 51% 0 mm
16:09 25.6 °C 15.3 °C 1015.1 hPa NNE 11.3 km/h 16.1 km/h 53% 0 mm
16:14 25.6 °C 15.3 °C 1015.1 hPa NE 6.4 km/h 20.9 km/h 53% 0 mm
16:19 26 °C 15.1 °C 1015.1 hPa North 4.8 km/h 12.9 km/h 51% 0 mm
16:24 26.2 °C 14.9 °C 1015.1 hPa North 4.8 km/h 16.1 km/h 50% 0 mm
16:29 25.7 °C 15.1 °C 1015.5 hPa NE 6.4 km/h 16.1 km/h 52% 0 mm
16:34 25.8 °C 14.9 °C 1015.1 hPa NNE 8 km/h 16.1 km/h 51% 0 mm
16:39 26.1 °C 16.1 °C 1015.1 hPa North 4.8 km/h 14.5 km/h 54% 0 mm
16:44 26.1 °C 15.2 °C 1015.1 hPa NNE 8 km/h 19.3 km/h 51% 0 mm
16:49 26 °C 14.4 °C 1015.5 hPa NE 6.4 km/h 19.3 km/h 49% 0 mm
16:54 25.8 °C 15.5 °C 1015.5 hPa NE 8 km/h 17.7 km/h 53% 0 mm
16:59 25.9 °C 14.7 °C 1015.5 hPa NE 3.2 km/h 20.9 km/h 50% 0 mm
17:04 25.9 °C 15.3 °C 1015.1 hPa ENE 4.8 km/h 14.5 km/h 52% 0 mm
17:09 25.8 °C 15.2 °C 1015.1 hPa NE 9.7 km/h 12.9 km/h 52% 0 mm
17:14 25.8 °C 14.9 °C 1015.5 hPa NNW 6.4 km/h 14.5 km/h 51% 0 mm
17:19 26 °C 15.1 °C 1015.5 hPa North 4.8 km/h 14.5 km/h 51% 0 mm
17:24 25.8 °C 15.2 °C 1015.5 hPa NNE 4.8 km/h 12.9 km/h 52% 0 mm
17:29 25.8 °C 15.2 °C 1015.5 hPa NE 4.8 km/h 14.5 km/h 52% 0 mm
17:34 25.9 °C 15 °C 1015.5 hPa NNE 4.8 km/h 14.5 km/h 51% 0 mm
17:39 26.1 °C 15.2 °C 1015.5 hPa NNW 4.8 km/h 12.9 km/h 51% 0 mm
17:44 25.7 °C 14.5 °C 1015.5 hPa NNE 6.4 km/h 16.1 km/h 50% 0 mm
17:49 25.8 °C 15.8 °C 1015.1 hPa NE 4.8 km/h 16.1 km/h 54% 0 mm
17:54 25.8 °C 15.2 °C 1015.1 hPa NNE 1.6 km/h 11.3 km/h 52% 0 mm
17:59 25.8 °C 15.2 °C 1015.1 hPa NNW 3.2 km/h 14.5 km/h 52% 0 mm
18:04 25.6 °C 14.9 °C 1015.1 hPa North 4.8 km/h 11.3 km/h 52% 0 mm
18:09 25.3 °C 15.1 °C 1015.1 hPa NE 6.4 km/h 11.3 km/h 53% 0 mm
18:14 25.6 °C 15.3 °C 1015.1 hPa North 6.4 km/h 14.5 km/h 53% 0 mm
18:19 25.3 °C 15.1 °C 1015.1 hPa North 4.8 km/h 14.5 km/h 53% 0 mm
18:24 25.2 °C 14.9 °C 1015.1 hPa NNW 6.4 km/h 14.5 km/h 53% 0 mm
18:29 25.2 °C 15.5 °C 1015.1 hPa North 4.8 km/h 12.9 km/h 55% 0 mm
18:34 25.2 °C 15.5 °C 1015.1 hPa North 4.8 km/h 9.7 km/h 55% 0 mm
18:39 25 °C 15.1 °C 1015.1 hPa NNE 3.2 km/h 17.7 km/h 54% 0 mm
18:44 24.9 °C 15.3 °C 1015.1 hPa NW 4.8 km/h 8 km/h 55% 0 mm
18:49 24.9 °C 15.3 °C 1015.1 hPa NNW 3.2 km/h 8 km/h 55% 0 mm
18:54 24.8 °C 15.4 °C 1015.1 hPa NNW 4.8 km/h 12.9 km/h 56% 0 mm
18:59 24.7 °C 15.3 °C 1015.1 hPa NNW 1.6 km/h 11.3 km/h 56% 0 mm
19:04 24.7 °C 15 °C 1015.1 hPa North 6.4 km/h 12.9 km/h 55% 0 mm
19:09 24.6 °C 14.9 °C 1015.1 hPa North 1.6 km/h 11.3 km/h 55% 0 mm
19:14 24.6 °C 14.6 °C 1015.1 hPa NNW 8 km/h 12.9 km/h 54% 0 mm
19:19 24.5 °C 15.2 °C 1015.1 hPa NNW 4.8 km/h 12.9 km/h 56% 0 mm
19:24 24.5 °C 14.9 °C 1015.1 hPa NNW 3.2 km/h 8 km/h 55% 0 mm
19:29 24.4 °C 14.8 °C 1015.1 hPa NW 3.2 km/h 8 km/h 55% 0 mm
19:34 24.2 °C 14.9 °C 1015.1 hPa NNW 4.8 km/h 8 km/h 56% 0 mm
19:39 24.1 °C 14.7 °C 1015.5 hPa Calm   6.4 km/h 56% 0 mm
19:44 23.9 °C 15.2 °C 1015.1 hPa Calm     58% 0 mm
19:49 23.8 °C 14.7 °C 1015.1 hPa Calm   3.2 km/h 57% 0 mm
19:54 23.7 °C 15.2 °C 1015.1 hPa Calm   3.2 km/h 59% 0 mm
19:59 23.6 °C 14.9 °C 1015.1 hPa Calm   3.2 km/h 58% 0 mm
20:04 23.6 °C 14.8 °C 1015.5 hPa Calm   4.8 km/h 58% 0 mm
20:09 23.6 °C 15.1 °C 1015.5 hPa Calm     59% 0 mm
20:14 23.4 °C 14.9 °C 1015.1 hPa Calm     59% 0 mm
20:19 23.3 °C 15.1 °C 1015.1 hPa Calm     60% 0 mm
20:24 23.2 °C 14.7 °C 1015.1 hPa Calm   3.2 km/h 59% 0 mm
20:29 23.1 °C 14.9 °C 1015.1 hPa Calm   3.2 km/h 60% 0 mm
20:34 23.1 °C 14.9 °C 1015.1 hPa Calm   3.2 km/h 60% 0 mm
20:39 23 °C 15.1 °C 1015.1 hPa Calm     61% 0 mm
20:44 22.9 °C 14.9 °C 1015.1 hPa Calm     61% 0 mm
20:49 22.8 °C 14.9 °C 1015.1 hPa Calm     61% 0 mm
20:54 22.7 °C 14.8 °C 1015.1 hPa Calm     61% 0 mm
20:59 22.6 °C 14.9 °C 1015.1 hPa Calm     62% 0 mm
21:04 22.7 °C 15 °C 1015.1 hPa Calm     62% 0 mm
21:09 22.7 °C 15 °C 1015.5 hPa Calm     62% 0 mm
21:14 22.7 °C 15 °C 1015.5 hPa Calm     62% 0 mm
21:19 22.7 °C 15.3 °C 1015.5 hPa Calm   6.4 km/h 63% 0 mm
21:24 22.6 °C 15.2 °C 1015.5 hPa Calm     63% 0 mm
21:29 22.6 °C 15.2 °C 1015.5 hPa Calm     63% 0 mm
21:34 22.6 °C 15.2 °C 1015.5 hPa Calm     63% 0 mm
21:39 22.4 °C 15.2 °C 1015.5 hPa Calm     64% 0 mm
21:44 22.3 °C 15.4 °C 1015.5 hPa Calm     65% 0 mm
21:49 22.3 °C 15.4 °C 1015.5 hPa Calm     65% 0 mm
21:54 22.3 °C 15.4 °C 1015.8 hPa Calm     65% 0 mm
21:59 22.2 °C 15.3 °C 1015.8 hPa Calm     65% 0 mm
22:04 21.9 °C 15.3 °C 1015.8 hPa Calm     66% 0 mm
22:09 21.7 °C 15.3 °C 1015.8 hPa Calm     67% 0 mm
22:14 21.4 °C 15.3 °C 1015.8 hPa Calm     68% 0 mm
22:19 21.4 °C 15.3 °C 1015.8 hPa Calm     68% 0 mm
22:24 21.2 °C 15.3 °C 1015.8 hPa Calm     69% 0 mm
22:29 21.1 °C 15.4 °C 1015.8 hPa Calm     70% 0 mm
22:34 21.1 °C 15.4 °C 1015.8 hPa Calm     70% 0 mm
22:39 21.2 °C 15.6 °C 1015.5 hPa Calm     70% 0 mm
22:44 21.2 °C 15.3 °C 1015.5 hPa Calm     69% 0 mm
22:49 21.1 °C 15.4 °C 1015.5 hPa Calm     70% 0 mm
22:54 20.9 °C 15.4 °C 1015.8 hPa Calm     71% 0 mm
22:59 20.5 °C 15.3 °C 1015.5 hPa Calm     72% 0 mm
23:04 20.3 °C 15.3 °C 1015.5 hPa Calm     73% 0 mm
23:09 20.2 °C 15.2 °C 1015.5 hPa Calm     73% 0 mm
23:14 20 °C 15.2 °C 1015.5 hPa Calm     74% 0 mm
23:19 19.9 °C 15.2 °C 1015.5 hPa Calm     74% 0 mm
23:24 19.9 °C 15.2 °C 1015.5 hPa Calm     74% 0 mm
23:29 20.1 °C 15.1 °C 1015.5 hPa Calm     73% 0 mm
23:34 20.2 °C 15 °C 1015.5 hPa Calm   3.2 km/h 72% 0 mm
23:39 20.3 °C 15.1 °C 1015.5 hPa Calm     72% 0 mm
23:49 20.3 °C 15.1 °C 1015.8 hPa Calm     72% 0 mm
23:54 20.3 °C 15.1 °C 1015.8 hPa Calm   4.8 km/h 72% 0 mm
23:59 20.4 °C 15.2 °C 1015.8 hPa Calm   6.4 km/h 72% 0 mm
Buffalo, New York, USA
Compliments of Weather Underground - 2.5 mb